createdAt,value
2022-12-16T00:01:10.306Z,-3.10
2022-12-16T00:03:38.872Z,-3.10
2022-12-16T00:06:07.804Z,-3.10
2022-12-16T00:08:37.779Z,-3.00
2022-12-16T00:11:06.398Z,-2.80
2022-12-16T00:13:37.372Z,-2.90
2022-12-16T00:16:06.573Z,-2.90
2022-12-16T00:18:34.557Z,-2.70
2022-12-16T00:21:02.837Z,-2.70
2022-12-16T00:23:31.633Z,-2.80
2022-12-16T00:26:00.270Z,-2.90
2022-12-16T00:28:28.439Z,-2.90
2022-12-16T00:30:58.299Z,-3.00
2022-12-16T00:33:28.080Z,-2.90
2022-12-16T00:35:56.693Z,-3.30
2022-12-16T00:38:26.949Z,-3.40
2022-12-16T00:40:54.874Z,-3.30
2022-12-16T00:43:23.200Z,-3.40
2022-12-16T00:45:51.916Z,-3.40
2022-12-16T00:48:22.885Z,-3.40
2022-12-16T00:50:52.255Z,-3.50
2022-12-16T00:53:20.777Z,-3.50
2022-12-16T00:55:48.715Z,-3.60
2022-12-16T00:58:16.948Z,-3.60
2022-12-16T01:00:44.738Z,-3.60
2022-12-16T01:03:16.835Z,-3.60
2022-12-16T01:05:50.494Z,-3.50
2022-12-16T01:08:18.477Z,-3.50
2022-12-16T01:10:51.936Z,-3.50
2022-12-16T01:13:20.932Z,-3.50
2022-12-16T01:15:49.047Z,-3.40
2022-12-16T01:18:17.329Z,-3.30
2022-12-16T01:20:45.129Z,-3.30
2022-12-16T01:23:14.259Z,-3.40
2022-12-16T01:25:42.029Z,-3.50
2022-12-16T01:28:10.229Z,-3.40
2022-12-16T01:30:38.098Z,-3.30
2022-12-16T01:33:05.870Z,-3.10
2022-12-16T01:38:22.814Z,-3.20
2022-12-16T01:40:51.515Z,-3.30
2022-12-16T01:43:21.894Z,-3.40
2022-12-16T01:45:49.822Z,-3.40
2022-12-16T01:48:27.294Z,-3.50
2022-12-16T01:51:00.226Z,-3.60
2022-12-16T01:53:30.444Z,-3.60
2022-12-16T01:55:59.483Z,-3.50
2022-12-16T01:58:30.084Z,-3.80
2022-12-16T02:00:57.950Z,-4.00
2022-12-16T02:03:26.762Z,-4.00
2022-12-16T02:05:54.805Z,-3.90
2022-12-16T02:08:24.141Z,-3.90
2022-12-16T02:11:19.519Z,-3.70
2022-12-16T02:13:59.829Z,-3.50
2022-12-16T02:16:34.249Z,-3.60
2022-12-16T02:19:18.397Z,-3.70
2022-12-16T02:21:53.675Z,-3.70
2022-12-16T02:24:59.065Z,-3.80
2022-12-16T02:27:41.926Z,-3.70
2022-12-16T02:30:31.010Z,-3.50
2022-12-16T02:33:11.304Z,-3.50
2022-12-16T02:35:45.982Z,-3.50
2022-12-16T02:38:22.586Z,-3.40
2022-12-16T02:40:56.249Z,-3.40
2022-12-16T02:43:40.122Z,-3.50
2022-12-16T02:46:09.497Z,-3.60
2022-12-16T02:48:38.631Z,-3.70
2022-12-16T02:51:06.676Z,-4.10
2022-12-16T02:53:37.690Z,-4.20
2022-12-16T02:56:18.429Z,-4.20
2022-12-16T02:58:50.461Z,-4.10
2022-12-16T03:01:22.806Z,-4.20
2022-12-16T03:03:59.355Z,-4.10
2022-12-16T03:06:28.649Z,-4.10
2022-12-16T03:09:00.275Z,-3.90
2022-12-16T03:11:31.133Z,-3.80
2022-12-16T03:14:00.635Z,-3.80
2022-12-16T03:16:31.441Z,-3.90
2022-12-16T03:19:04.406Z,-3.80
2022-12-16T03:21:38.746Z,-3.80
2022-12-16T03:24:10.550Z,-3.80
2022-12-16T03:26:44.642Z,-3.70
2022-12-16T03:29:15.634Z,-4.00
2022-12-16T03:31:47.222Z,-4.20
2022-12-16T03:34:22.449Z,-4.20
2022-12-16T03:36:55.018Z,-4.20
2022-12-16T03:39:24.512Z,-4.20
2022-12-16T03:41:54.616Z,-4.30
2022-12-16T03:44:25.195Z,-4.30
2022-12-16T03:46:53.189Z,-4.30
2022-12-16T03:49:22.627Z,-4.30
2022-12-16T03:51:50.441Z,-4.10
2022-12-16T03:54:18.998Z,-4.10
2022-12-16T03:56:47.587Z,-4.10
2022-12-16T03:59:15.541Z,-4.10
2022-12-16T04:01:43.767Z,-4.10
2022-12-16T04:04:11.689Z,-4.10
2022-12-16T04:06:40.808Z,-3.90
2022-12-16T04:09:08.739Z,-3.90
2022-12-16T04:11:53.971Z,-3.90
2022-12-16T04:14:39.318Z,-3.80
2022-12-16T04:17:25.316Z,-3.90
2022-12-16T04:20:10.668Z,-4.00
2022-12-16T04:23:00.428Z,-4.10
2022-12-16T04:25:31.532Z,-4.10
2022-12-16T04:27:59.490Z,-4.20
2022-12-16T04:30:28.837Z,-4.30
2022-12-16T04:33:17.128Z,-4.20
2022-12-16T04:36:02.665Z,-4.00
2022-12-16T04:38:49.174Z,-3.90
2022-12-16T04:41:34.524Z,-3.90
2022-12-16T04:44:20.003Z,-3.90
2022-12-16T04:47:06.196Z,-4.10
2022-12-16T04:49:51.760Z,-4.20
2022-12-16T04:52:37.251Z,-4.30
2022-12-16T04:55:25.115Z,-4.00
2022-12-16T04:58:11.058Z,-4.00
2022-12-16T05:00:56.585Z,-4.10
2022-12-16T05:03:42.224Z,-4.10
2022-12-16T05:06:27.789Z,-4.40
2022-12-16T05:09:13.238Z,-4.60
2022-12-16T05:12:00.015Z,-4.70
2022-12-16T05:14:45.572Z,-4.90
2022-12-16T05:17:31.235Z,-5.10
2022-12-16T05:20:16.700Z,-5.00
2022-12-16T05:23:02.033Z,-4.90
2022-12-16T05:25:47.425Z,-4.80
2022-12-16T05:28:34.413Z,-4.60
2022-12-16T05:31:19.767Z,-4.50
2022-12-16T05:34:05.261Z,-4.40
2022-12-16T05:36:50.790Z,-4.30
2022-12-16T05:39:36.300Z,-4.30
2022-12-16T05:42:21.858Z,-4.30
2022-12-16T05:45:08.688Z,-4.30
2022-12-16T05:47:54.141Z,-4.30
2022-12-16T05:50:41.931Z,-4.40
2022-12-16T05:53:30.488Z,-4.40
2022-12-16T05:56:16.301Z,-4.30
2022-12-16T05:59:02.048Z,-4.20
2022-12-16T06:01:48.993Z,-4.40
2022-12-16T06:04:34.535Z,-4.60
2022-12-16T06:07:19.974Z,-4.60
2022-12-16T06:10:05.429Z,-4.60
2022-12-16T06:12:50.885Z,-4.30
2022-12-16T06:15:36.213Z,-4.10
2022-12-16T06:18:23.434Z,-4.30
2022-12-16T06:21:09.004Z,-4.50
2022-12-16T06:23:54.369Z,-4.50
2022-12-16T06:26:39.993Z,-4.40
2022-12-16T06:29:27.903Z,-4.30
2022-12-16T06:32:13.323Z,-4.20
2022-12-16T06:35:00.161Z,-4.20
2022-12-16T06:38:00.153Z,-4.20
2022-12-16T06:40:45.715Z,-4.30
2022-12-16T06:43:31.436Z,-4.40
2022-12-16T06:46:17.121Z,-4.30
2022-12-16T06:49:02.697Z,-4.40
2022-12-16T06:51:49.525Z,-4.40
2022-12-16T06:54:34.892Z,-4.50
2022-12-16T06:57:20.531Z,-4.60
2022-12-16T07:00:05.963Z,-4.40
2022-12-16T07:02:51.571Z,-4.40
2022-12-16T07:05:36.962Z,-4.40
2022-12-16T07:08:23.625Z,-4.50
2022-12-16T07:11:16.712Z,-4.60
2022-12-16T07:14:02.888Z,-4.70
2022-12-16T07:16:48.367Z,-4.90
2022-12-16T07:19:34.135Z,-4.80
2022-12-16T07:22:19.632Z,-4.70
2022-12-16T07:25:06.142Z,-4.60
2022-12-16T07:27:51.520Z,-4.60
2022-12-16T07:30:36.958Z,-4.70
2022-12-16T07:33:22.341Z,-4.70
2022-12-16T07:36:07.849Z,-4.70
2022-12-16T07:38:53.321Z,-4.60
2022-12-16T07:41:40.195Z,-4.50
2022-12-16T07:44:25.728Z,-4.50
2022-12-16T07:47:11.275Z,-4.60
2022-12-16T07:49:56.853Z,-4.60
2022-12-16T07:52:42.262Z,-4.60
2022-12-16T07:55:27.725Z,-4.50
2022-12-16T07:58:14.593Z,-4.40
2022-12-16T08:01:02.739Z,-4.40
2022-12-16T08:03:51.778Z,-4.30
2022-12-16T08:06:40.455Z,-4.30
2022-12-16T08:09:26.060Z,-4.30
2022-12-16T08:12:11.422Z,-4.20
2022-12-16T08:14:58.212Z,-4.20
2022-12-16T08:17:43.519Z,-4.30
2022-12-16T08:20:29.300Z,-4.40
2022-12-16T08:23:13.954Z,-4.30
2022-12-16T08:25:59.298Z,-4.30
2022-12-16T08:28:44.791Z,-4.30
2022-12-16T08:31:31.523Z,-4.40
2022-12-16T08:34:17.018Z,-4.20
2022-12-16T08:37:10.857Z,-4.30
2022-12-16T08:40:25.750Z,-4.30
2022-12-16T08:43:01.691Z,-4.20
2022-12-16T08:45:47.219Z,-4.10
2022-12-16T08:48:33.906Z,-4.10
2022-12-16T08:51:20.493Z,-4.10
2022-12-16T08:54:06.103Z,-4.10
2022-12-16T08:56:51.821Z,-4.00
2022-12-16T08:59:37.221Z,-3.90
2022-12-16T09:02:23.022Z,-3.90
2022-12-16T09:05:10.023Z,-3.90
2022-12-16T09:07:55.443Z,-3.90
2022-12-16T09:10:49.393Z,-3.80
2022-12-16T09:13:35.296Z,-3.90
2022-12-16T09:16:21.225Z,-3.80
2022-12-16T09:19:08.946Z,-3.70
2022-12-16T09:21:55.629Z,-3.60
2022-12-16T09:24:41.025Z,-3.60
2022-12-16T09:27:26.555Z,-3.50
2022-12-16T09:30:12.204Z,-3.50
2022-12-16T09:33:00.527Z,-3.50
2022-12-16T09:35:54.280Z,-3.30
2022-12-16T09:38:42.326Z,-3.30
2022-12-16T09:41:44.788Z,-3.20
2022-12-16T09:44:39.490Z,-3.20
2022-12-16T09:47:32.052Z,-3.10
2022-12-16T09:50:18.119Z,-3.10
2022-12-16T09:53:09.194Z,-3.00
2022-12-16T09:55:58.831Z,-2.90
2022-12-16T09:58:58.790Z,-2.70
2022-12-16T10:01:46.053Z,-2.50
2022-12-16T10:04:31.441Z,-2.20
2022-12-16T10:07:18.415Z,-2.00
2022-12-16T10:10:12.829Z,-1.80
2022-12-16T10:13:08.656Z,-1.60
2022-12-16T10:16:03.259Z,-1.50
2022-12-16T10:19:01.808Z,-1.30
2022-12-16T10:21:51.599Z,-1.10
2022-12-16T10:24:49.088Z,-1.00
2022-12-16T10:27:39.431Z,-0.70
2022-12-16T10:30:47.128Z,-0.50
2022-12-16T10:33:35.170Z,-0.60
2022-12-16T10:36:21.063Z,-0.50
2022-12-16T10:39:10.574Z,-0.30
2022-12-16T10:41:58.456Z,-0.20
2022-12-16T10:44:47.843Z,-0.20
2022-12-16T10:47:34.633Z,0.00
2022-12-16T10:50:20.332Z,0.20
2022-12-16T10:53:12.141Z,0.30
2022-12-16T10:56:13.113Z,0.30
2022-12-16T10:59:04.758Z,0.30
2022-12-16T11:01:50.372Z,0.40
2022-12-16T11:04:49.026Z,0.50
2022-12-16T11:07:51.415Z,0.80
2022-12-16T11:10:49.011Z,0.90
2022-12-16T11:13:40.686Z,0.80
2022-12-16T11:16:29.794Z,0.80
2022-12-16T11:19:15.526Z,0.90
2022-12-16T11:22:03.266Z,1.00
2022-12-16T11:24:49.076Z,0.90
2022-12-16T11:27:41.302Z,1.00
2022-12-16T11:30:39.464Z,1.10
2022-12-16T11:33:33.170Z,1.10
2022-12-16T11:36:31.707Z,1.10
2022-12-16T11:39:19.108Z,1.20
2022-12-16T11:42:07.943Z,1.20
2022-12-16T11:44:58.761Z,1.40
2022-12-16T11:47:54.182Z,1.60
2022-12-16T11:50:40.951Z,1.80
2022-12-16T11:53:48.884Z,1.80
2022-12-16T11:56:42.097Z,1.80
2022-12-16T11:59:36.545Z,1.70
2022-12-16T12:02:27.103Z,1.70
2022-12-16T12:05:12.708Z,1.90
2022-12-16T12:08:18.234Z,1.70
2022-12-16T12:11:21.294Z,1.70
2022-12-16T12:14:23.169Z,1.90
2022-12-16T12:17:19.562Z,2.10
2022-12-16T12:20:15.539Z,2.20
2022-12-16T12:23:01.096Z,2.10
2022-12-16T12:25:56.768Z,2.00
2022-12-16T12:28:53.810Z,2.10
2022-12-16T12:31:54.143Z,2.10
2022-12-16T12:34:49.514Z,2.30
2022-12-16T12:37:42.083Z,2.50
2022-12-16T12:40:38.070Z,2.70
2022-12-16T12:43:29.893Z,2.60
2022-12-16T12:46:22.772Z,2.70
2022-12-16T12:49:18.178Z,2.60
2022-12-16T12:52:10.957Z,2.50
2022-12-16T12:55:05.287Z,2.50
2022-12-16T12:57:53.388Z,2.60
2022-12-16T13:00:43.425Z,2.80
2022-12-16T13:03:36.739Z,2.90
2022-12-16T13:06:25.119Z,3.00
2022-12-16T13:09:15.832Z,2.80
2022-12-16T13:12:34.849Z,2.50
2022-12-16T13:15:24.205Z,2.70
2022-12-16T13:18:45.803Z,2.70
2022-12-16T13:22:06.260Z,2.50
2022-12-16T13:25:03.597Z,2.60
2022-12-16T13:28:04.017Z,2.50
2022-12-16T13:30:51.729Z,2.70
2022-12-16T13:33:42.994Z,2.50
2022-12-16T13:36:29.718Z,2.50
2022-12-16T13:39:22.911Z,2.70
2022-12-16T13:42:16.608Z,2.80
2022-12-16T13:45:16.257Z,2.80
2022-12-16T13:48:18.710Z,2.90
2022-12-16T13:51:06.377Z,2.90
2022-12-16T13:53:55.808Z,2.80
2022-12-16T13:56:49.068Z,2.90
2022-12-16T13:59:38.615Z,3.00
2022-12-16T14:02:42.653Z,3.10
2022-12-16T14:05:39.171Z,3.20
2022-12-16T14:08:30.012Z,3.20
2022-12-16T14:11:20.902Z,3.20
2022-12-16T14:14:14.578Z,3.00
2022-12-16T14:17:08.588Z,3.10
2022-12-16T14:20:05.155Z,3.10
2022-12-16T14:23:05.616Z,3.10
2022-12-16T14:25:51.512Z,3.30
2022-12-16T14:28:43.661Z,3.40
2022-12-16T14:31:35.699Z,3.30
2022-12-16T14:34:22.065Z,3.00
2022-12-16T14:37:07.514Z,3.10
2022-12-16T14:39:57.457Z,3.10
2022-12-16T14:42:44.931Z,3.20
2022-12-16T14:45:44.029Z,3.20
2022-12-16T14:48:50.286Z,3.30
2022-12-16T14:51:42.002Z,3.20
2022-12-16T14:54:41.308Z,3.20
2022-12-16T14:57:34.414Z,3.10
2022-12-16T15:00:23.393Z,3.00
2022-12-16T15:03:20.508Z,2.90
2022-12-16T15:06:08.031Z,2.80
2022-12-16T15:09:00.629Z,2.70
2022-12-16T15:11:46.062Z,2.80
2022-12-16T15:14:37.360Z,2.90
2022-12-16T15:17:22.911Z,2.80
2022-12-16T15:20:11.489Z,2.80
2022-12-16T15:23:08.196Z,2.70
2022-12-16T15:25:53.801Z,2.80
2022-12-16T15:28:44.013Z,2.70
2022-12-16T15:31:33.958Z,2.50
2022-12-16T15:34:45.636Z,2.10
2022-12-16T15:37:40.150Z,2.20
2022-12-16T15:40:39.849Z,2.40
2022-12-16T15:43:25.532Z,2.50
2022-12-16T15:46:11.155Z,2.40
2022-12-16T15:49:01.815Z,2.50
2022-12-16T15:51:49.564Z,2.60
2022-12-16T15:54:38.088Z,2.60
2022-12-16T15:57:45.312Z,2.40
2022-12-16T16:00:39.951Z,2.30
2022-12-16T16:03:51.665Z,2.10
2022-12-16T16:06:40.197Z,2.30
2022-12-16T16:09:33.183Z,2.50
2022-12-16T16:12:18.589Z,2.60
2022-12-16T16:15:05.416Z,2.40
2022-12-16T16:17:50.828Z,2.00
2022-12-16T16:20:37.332Z,2.10
2022-12-16T16:23:22.778Z,2.10
2022-12-16T16:26:13.576Z,2.20
2022-12-16T16:28:59.159Z,2.30
2022-12-16T16:31:46.429Z,2.40
2022-12-16T16:34:32.030Z,2.40
2022-12-16T16:37:17.477Z,2.50
2022-12-16T16:40:03.553Z,2.40
2022-12-16T16:42:48.882Z,2.40
2022-12-16T16:45:34.207Z,2.40
2022-12-16T16:48:27.934Z,2.40
2022-12-16T16:51:15.778Z,2.40
2022-12-16T16:54:01.631Z,2.40
2022-12-16T16:56:49.321Z,2.30
2022-12-16T16:59:34.666Z,2.40
2022-12-16T17:02:20.328Z,2.30
2022-12-16T17:05:09.392Z,2.30
2022-12-16T17:07:53.935Z,2.40
2022-12-16T17:10:39.618Z,2.40
2022-12-16T17:13:25.233Z,2.20
2022-12-16T17:16:10.733Z,2.20
2022-12-16T17:18:56.009Z,2.20
2022-12-16T17:21:42.765Z,2.40
2022-12-16T17:24:24.492Z,2.40
2022-12-16T17:27:09.906Z,2.40
2022-12-16T17:29:55.442Z,2.50
2022-12-16T17:32:40.904Z,2.40
2022-12-16T17:35:29.333Z,2.30
2022-12-16T17:38:15.958Z,2.10
2022-12-16T17:41:01.491Z,2.00
2022-12-16T17:43:46.833Z,2.10
2022-12-16T17:46:32.402Z,2.30
2022-12-16T17:49:18.197Z,2.20
2022-12-16T17:52:03.647Z,2.20
2022-12-16T17:54:50.414Z,2.00
2022-12-16T17:57:35.510Z,1.90
2022-12-16T18:00:21.378Z,1.90
2022-12-16T18:03:07.084Z,2.10
2022-12-16T18:05:52.385Z,2.00
2022-12-16T18:08:37.845Z,2.00
2022-12-16T18:11:24.668Z,2.00
2022-12-16T18:14:10.146Z,1.90
2022-12-16T18:16:55.493Z,2.00
2022-12-16T18:19:55.368Z,2.00
2022-12-16T18:22:40.578Z,2.10
2022-12-16T18:25:26.037Z,2.10
2022-12-16T18:28:12.980Z,2.10
2022-12-16T18:30:58.453Z,2.20
2022-12-16T18:33:58.159Z,2.00
2022-12-16T18:36:43.678Z,2.00
2022-12-16T18:39:29.192Z,2.00
2022-12-16T18:42:14.613Z,1.90
2022-12-16T18:45:01.813Z,2.00
2022-12-16T18:47:49.650Z,2.00
2022-12-16T18:50:38.093Z,2.10
2022-12-16T18:53:23.943Z,2.10
2022-12-16T18:56:18.131Z,1.90
2022-12-16T18:59:03.392Z,1.90
2022-12-16T19:01:50.400Z,1.70
2022-12-16T19:04:35.675Z,1.60
2022-12-16T19:07:21.184Z,1.60
2022-12-16T19:10:15.097Z,1.70
2022-12-16T19:13:00.664Z,1.60
2022-12-16T19:15:46.144Z,1.60
2022-12-16T19:18:33.147Z,1.60
2022-12-16T19:21:19.021Z,1.60
2022-12-16T19:24:06.852Z,1.60
2022-12-16T19:26:52.350Z,1.50
2022-12-16T19:29:41.744Z,1.50
2022-12-16T19:32:27.295Z,1.50
2022-12-16T19:35:13.958Z,1.50
2022-12-16T19:37:59.450Z,1.60
2022-12-16T19:40:44.920Z,1.70
2022-12-16T19:43:30.433Z,1.70
2022-12-16T19:46:15.904Z,1.60
2022-12-16T19:49:01.184Z,1.60
2022-12-16T19:51:48.059Z,1.70
2022-12-16T19:54:33.664Z,1.80
2022-12-16T19:57:19.343Z,1.70
2022-12-16T20:00:04.821Z,1.60
2022-12-16T20:02:50.266Z,1.50
2022-12-16T20:05:35.740Z,1.40
2022-12-16T20:08:22.740Z,1.40
2022-12-16T20:11:08.243Z,1.40
2022-12-16T20:13:56.197Z,1.50
2022-12-16T20:16:42.999Z,1.60
2022-12-16T20:19:28.485Z,1.50
2022-12-16T20:22:16.505Z,1.50
2022-12-16T20:25:03.160Z,1.30
2022-12-16T20:27:48.669Z,1.20
2022-12-16T20:30:33.977Z,1.10
2022-12-16T20:33:19.338Z,1.20
2022-12-16T20:36:13.842Z,1.20
2022-12-16T20:38:59.390Z,1.30
2022-12-16T20:41:46.249Z,1.40
2022-12-16T20:44:31.699Z,1.40
2022-12-16T20:47:17.268Z,1.40
2022-12-16T20:50:02.773Z,1.60
2022-12-16T20:52:48.301Z,1.60
2022-12-16T20:55:33.998Z,1.70
2022-12-16T20:58:20.870Z,1.70
2022-12-16T21:01:10.484Z,1.50
2022-12-16T21:03:56.197Z,1.70
2022-12-16T21:06:41.890Z,1.70
2022-12-16T21:09:27.276Z,1.20
2022-12-16T21:12:12.889Z,0.70
2022-12-16T21:14:59.599Z,0.60
2022-12-16T21:17:45.141Z,0.80
2022-12-16T21:20:30.611Z,0.90
2022-12-16T21:23:17.922Z,1.10
2022-12-16T21:26:03.456Z,1.30
2022-12-16T21:28:48.846Z,1.20
2022-12-16T21:31:35.634Z,1.20
2022-12-16T21:34:21.284Z,1.40
2022-12-16T21:37:08.225Z,1.60
2022-12-16T21:39:54.834Z,1.60
2022-12-16T21:42:56.268Z,1.50
2022-12-16T21:45:42.074Z,1.60
2022-12-16T21:48:31.014Z,1.60
2022-12-16T21:51:16.479Z,1.50
2022-12-16T21:54:16.356Z,1.30
2022-12-16T21:57:01.935Z,1.30
2022-12-16T21:59:47.395Z,1.40
2022-12-16T22:02:32.990Z,1.60
2022-12-16T22:05:19.934Z,1.50
2022-12-16T22:08:06.145Z,1.60
2022-12-16T22:10:51.577Z,1.70
2022-12-16T22:13:37.408Z,1.80
2022-12-16T22:16:23.522Z,1.80
2022-12-16T22:19:12.215Z,1.60
2022-12-16T22:21:58.773Z,1.60
2022-12-16T22:24:44.260Z,1.70
2022-12-16T22:27:29.931Z,1.70
2022-12-16T22:30:15.396Z,1.40
2022-12-16T22:33:00.884Z,1.40
2022-12-16T22:35:46.402Z,1.50
2022-12-16T22:38:32.943Z,1.60
2022-12-16T22:41:19.126Z,1.70
2022-12-16T22:44:04.440Z,1.70
2022-12-16T22:46:50.554Z,1.70
2022-12-16T22:49:36.053Z,1.80
2022-12-16T22:52:21.443Z,1.80
2022-12-16T22:55:08.250Z,1.60
2022-12-16T22:57:53.717Z,1.80
2022-12-16T23:00:39.255Z,1.80
2022-12-16T23:03:24.834Z,1.80
2022-12-16T23:06:10.351Z,1.80
2022-12-16T23:08:55.959Z,1.70
2022-12-16T23:11:51.248Z,1.70
2022-12-16T23:14:42.572Z,1.50
2022-12-16T23:17:28.897Z,1.10
2022-12-16T23:20:14.085Z,1.20
2022-12-16T23:22:59.909Z,1.40
2022-12-16T23:25:45.644Z,1.50
2022-12-16T23:28:32.246Z,1.50
2022-12-16T23:31:17.740Z,1.60
2022-12-16T23:34:03.198Z,1.70
2022-12-16T23:36:48.645Z,1.60
2022-12-16T23:39:34.042Z,1.50
2022-12-16T23:42:15.896Z,1.50
2022-12-16T23:45:02.744Z,1.50
2022-12-16T23:47:48.311Z,1.60
2022-12-16T23:50:33.721Z,1.40
2022-12-16T23:53:23.129Z,1.30
2022-12-16T23:56:08.613Z,1.40
2022-12-16T23:58:54.228Z,1.50
